createdAt,value
2018-09-07T00:01:44.748Z,81.31
2018-09-07T00:04:13.577Z,81.42
2018-09-07T00:06:44.099Z,81.28
2018-09-07T00:09:13.726Z,81.72
2018-09-07T00:11:42.416Z,82.78
2018-09-07T00:14:11.074Z,81.50
2018-09-07T00:16:40.655Z,81.19
2018-09-07T00:19:09.391Z,80.90
2018-09-07T00:21:38.477Z,80.62
2018-09-07T00:24:07.179Z,81.85
2018-09-07T00:26:35.880Z,83.83
2018-09-07T00:29:04.538Z,84.15
2018-09-07T00:31:33.608Z,82.45
2018-09-07T00:34:06.061Z,84.09
2018-09-07T00:36:34.758Z,83.64
2018-09-07T00:39:03.630Z,84.23
2018-09-07T00:41:32.255Z,82.54
2018-09-07T00:44:02.797Z,83.05
2018-09-07T00:46:31.749Z,81.79
2018-09-07T00:49:00.434Z,82.58
2018-09-07T00:51:29.083Z,82.71
2018-09-07T00:53:58.020Z,82.15
2018-09-07T00:56:27.104Z,81.92
2018-09-07T00:58:55.734Z,83.13
2018-09-07T01:01:24.395Z,83.29
2018-09-07T01:03:53.054Z,84.09
2018-09-07T01:06:21.710Z,82.96
2018-09-07T01:08:50.343Z,83.12
2018-09-07T01:11:19.063Z,83.29
2018-09-07T01:13:47.781Z,84.00
2018-09-07T01:16:16.447Z,84.69
2018-09-07T01:18:47.608Z,86.19
2018-09-07T01:21:16.623Z,85.81
2018-09-07T01:23:45.328Z,85.68
2018-09-07T01:26:13.991Z,85.97
2018-09-07T01:28:42.648Z,84.97
2018-09-07T01:31:11.314Z,84.12
2018-09-07T01:33:39.931Z,84.91
2018-09-07T01:36:08.555Z,84.59
2018-09-07T01:38:37.437Z,83.96
2018-09-07T01:41:06.560Z,85.23
2018-09-07T01:43:35.231Z,84.57
2018-09-07T01:46:04.235Z,84.40
2018-09-07T01:48:32.978Z,84.63
2018-09-07T01:51:01.639Z,84.53
2018-09-07T01:53:30.324Z,83.27
2018-09-07T01:55:59.044Z,83.66
2018-09-07T01:58:27.711Z,83.56
2018-09-07T02:00:56.381Z,84.28
2018-09-07T02:03:30.382Z,83.41
2018-09-07T02:05:59.125Z,83.14
2018-09-07T02:08:29.083Z,83.17
2018-09-07T02:10:58.795Z,83.81
2018-09-07T02:13:29.531Z,84.44
2018-09-07T02:15:58.207Z,84.36
2018-09-07T02:18:27.811Z,83.31
2018-09-07T02:20:56.462Z,83.22
2018-09-07T02:23:25.141Z,82.74
2018-09-07T02:25:53.792Z,82.54
2018-09-07T02:28:22.489Z,83.10
2018-09-07T02:30:51.222Z,83.59
2018-09-07T02:33:19.856Z,83.76
2018-09-07T02:35:48.494Z,84.30
2018-09-07T02:38:17.140Z,84.25
2018-09-07T02:40:45.795Z,84.90
2018-09-07T02:43:14.475Z,85.91
2018-09-07T02:45:43.118Z,85.92
2018-09-07T02:48:11.768Z,85.44
2018-09-07T02:50:40.484Z,84.55
2018-09-07T02:53:09.149Z,84.87
2018-09-07T02:55:37.784Z,84.35
2018-09-07T02:58:06.494Z,84.53
2018-09-07T03:00:35.127Z,84.34
2018-09-07T03:03:03.783Z,83.86
2018-09-07T03:05:32.460Z,82.74
2018-09-07T03:08:01.141Z,83.65
2018-09-07T03:10:29.826Z,82.75
2018-09-07T03:12:58.505Z,83.48
2018-09-07T03:15:27.194Z,82.95
2018-09-07T03:17:55.860Z,83.62
2018-09-07T03:20:24.510Z,83.95
2018-09-07T03:22:53.203Z,83.29
2018-09-07T03:25:21.867Z,83.94
2018-09-07T03:27:50.727Z,83.47
2018-09-07T03:30:19.412Z,84.36
2018-09-07T03:32:48.094Z,85.84
2018-09-07T03:35:16.752Z,86.14
2018-09-07T03:37:45.446Z,87.33
2018-09-07T03:40:14.150Z,88.65
2018-09-07T03:42:42.853Z,89.21
2018-09-07T03:45:11.535Z,89.06
2018-09-07T03:47:40.215Z,90.59
2018-09-07T03:50:08.926Z,89.69
2018-09-07T03:52:37.991Z,89.14
2018-09-07T03:55:06.819Z,90.38
2018-09-07T03:57:35.573Z,90.64
2018-09-07T04:00:05.979Z,91.07
2018-09-07T04:02:34.638Z,91.13
2018-09-07T04:05:03.321Z,90.13
2018-09-07T04:07:31.979Z,90.36
2018-09-07T04:10:00.666Z,89.86
2018-09-07T04:12:29.336Z,89.27
2018-09-07T04:14:57.971Z,89.03
2018-09-07T04:17:26.662Z,87.28
2018-09-07T04:19:55.347Z,87.95
2018-09-07T04:22:24.003Z,87.55
2018-09-07T04:24:52.676Z,87.41
2018-09-07T04:27:21.303Z,86.32
2018-09-07T04:29:49.937Z,86.62
2018-09-07T04:32:18.623Z,86.51
2018-09-07T04:34:47.287Z,86.28
2018-09-07T04:37:15.992Z,85.82
2018-09-07T04:39:45.028Z,86.38
2018-09-07T04:42:13.750Z,84.73
2018-09-07T04:44:42.423Z,82.28
2018-09-07T04:47:11.154Z,81.54
2018-09-07T04:49:39.820Z,82.11
2018-09-07T04:52:08.523Z,82.05
2018-09-07T04:54:37.169Z,81.09
2018-09-07T04:57:05.951Z,82.20
2018-09-07T04:59:34.635Z,81.41
2018-09-07T05:02:03.476Z,79.64
2018-09-07T05:04:32.124Z,79.99
2018-09-07T05:07:00.825Z,80.95
2018-09-07T05:09:29.473Z,80.27
2018-09-07T05:11:58.141Z,79.27
2018-09-07T05:14:26.800Z,78.01
2018-09-07T05:16:55.467Z,76.09
2018-09-07T05:19:24.111Z,75.13
2018-09-07T05:21:52.788Z,75.39
2018-09-07T05:24:21.510Z,73.98
2018-09-07T05:26:50.182Z,73.74
2018-09-07T05:29:18.877Z,73.71
2018-09-07T05:31:47.552Z,73.96
2018-09-07T05:34:16.227Z,74.64
2018-09-07T05:36:44.869Z,74.48
2018-09-07T05:39:13.539Z,74.52
2018-09-07T05:41:42.338Z,75.00
2018-09-07T05:44:10.972Z,75.87
2018-09-07T05:46:39.622Z,77.17
2018-09-07T05:49:08.291Z,76.39
2018-09-07T05:51:36.980Z,77.69
2018-09-07T05:54:05.754Z,77.08
2018-09-07T05:56:34.436Z,75.63
2018-09-07T05:59:03.345Z,74.37
2018-09-07T06:01:32.027Z,73.04
2018-09-07T06:04:00.695Z,73.85
2018-09-07T06:06:29.397Z,74.41
2018-09-07T06:08:58.046Z,74.40
2018-09-07T06:11:26.662Z,73.30
2018-09-07T06:13:55.350Z,73.01
2018-09-07T06:16:24.106Z,72.60
2018-09-07T06:18:52.738Z,73.35
2018-09-07T06:21:21.376Z,74.42
2018-09-07T06:23:50.028Z,74.50
2018-09-07T06:26:18.672Z,74.26
2018-09-07T06:28:47.309Z,70.12
2018-09-07T06:31:15.977Z,70.86
2018-09-07T06:33:44.648Z,72.86
2018-09-07T06:36:13.324Z,73.18
2018-09-07T06:38:42.036Z,73.40
2018-09-07T06:41:10.692Z,72.04
2018-09-07T06:43:39.354Z,69.62
2018-09-07T06:46:08.091Z,67.21
2018-09-07T06:48:36.860Z,65.55
2018-09-07T06:51:05.615Z,63.63
2018-09-07T06:53:34.266Z,61.26
2018-09-07T06:56:02.999Z,61.17
2018-09-07T06:58:31.709Z,59.66
2018-09-07T07:01:00.344Z,58.42
2018-09-07T07:03:29.091Z,56.78
2018-09-07T07:05:57.723Z,57.72
2018-09-07T07:08:26.391Z,55.90
2018-09-07T07:10:55.334Z,55.05
2018-09-07T07:13:23.992Z,55.61
2018-09-07T07:15:52.717Z,53.57
2018-09-07T07:18:21.355Z,54.33
2018-09-07T07:20:50.076Z,52.83
2018-09-07T07:23:18.739Z,53.99
2018-09-07T07:25:47.407Z,53.26
2018-09-07T07:28:16.140Z,52.03
2018-09-07T07:30:44.852Z,49.77
2018-09-07T07:33:13.534Z,51.25
2018-09-07T07:35:42.159Z,50.46
2018-09-07T07:38:10.836Z,49.45
2018-09-07T07:40:39.492Z,49.54
2018-09-07T07:43:08.272Z,49.61
2018-09-07T07:45:36.955Z,48.55
2018-09-07T07:48:05.798Z,48.04
2018-09-07T07:50:34.319Z,47.37
2018-09-07T07:53:03.003Z,46.43
2018-09-07T07:55:31.702Z,47.40
2018-09-07T07:58:00.345Z,46.88
2018-09-07T08:00:29.131Z,47.18
2018-09-07T08:02:57.859Z,47.41
2018-09-07T08:05:26.646Z,48.03
2018-09-07T08:07:55.295Z,47.87
2018-09-07T08:10:23.999Z,46.56
2018-09-07T08:12:52.704Z,45.26
2018-09-07T08:15:21.335Z,45.01
2018-09-07T08:17:50.037Z,43.86
2018-09-07T08:20:18.674Z,44.56
2018-09-07T08:22:47.326Z,44.19
2018-09-07T08:25:16.035Z,44.24
2018-09-07T08:27:44.967Z,44.59
2018-09-07T08:30:13.937Z,44.91
2018-09-07T08:32:42.697Z,44.24
2018-09-07T08:35:11.349Z,42.79
2018-09-07T08:37:40.011Z,42.40
2018-09-07T08:40:08.782Z,41.42
2018-09-07T08:42:37.480Z,40.62
2018-09-07T08:45:06.246Z,41.78
2018-09-07T08:47:34.928Z,43.14
2018-09-07T08:50:03.616Z,45.30
2018-09-07T08:52:32.262Z,46.97
2018-09-07T08:55:00.944Z,46.11
2018-09-07T08:57:29.625Z,46.45
2018-09-07T08:59:58.368Z,48.00
2018-09-07T09:02:27.037Z,47.27
2018-09-07T09:04:55.687Z,47.71
2018-09-07T09:07:24.484Z,48.35
2018-09-07T09:09:53.491Z,48.68
2018-09-07T09:12:22.237Z,49.87
2018-09-07T09:14:50.913Z,50.38
2018-09-07T09:17:19.669Z,49.91
2018-09-07T09:19:48.324Z,50.39
2018-09-07T09:22:16.937Z,49.90
2018-09-07T09:24:45.587Z,49.68
2018-09-07T09:27:14.514Z,44.78
2018-09-07T09:29:43.307Z,43.66
2018-09-07T09:32:12.088Z,41.67
2018-09-07T09:34:40.747Z,40.13
2018-09-07T09:37:09.437Z,39.09
2018-09-07T09:39:38.144Z,40.15
2018-09-07T09:42:06.870Z,41.77
2018-09-07T09:44:35.551Z,42.48
2018-09-07T09:47:04.453Z,42.74
2018-09-07T09:49:33.095Z,43.23
2018-09-07T09:52:01.754Z,43.92
2018-09-07T09:54:30.449Z,44.37
2018-09-07T09:56:59.120Z,44.97
2018-09-07T09:59:27.849Z,44.14
2018-09-07T10:02:33.056Z,44.34
2018-09-07T10:05:01.645Z,44.08
2018-09-07T10:07:30.314Z,42.44
2018-09-07T10:09:58.983Z,40.45
2018-09-07T10:12:27.629Z,37.67
2018-09-07T10:14:56.293Z,36.14
2018-09-07T10:17:31.571Z,35.39
2018-09-07T10:20:00.244Z,34.05
2018-09-07T10:22:28.902Z,34.97
2018-09-07T10:24:57.565Z,34.69
2018-09-07T10:27:26.237Z,33.59
2018-09-07T10:29:54.911Z,33.01
2018-09-07T10:32:23.784Z,34.17
2018-09-07T10:34:52.538Z,33.42
2018-09-07T10:37:21.226Z,34.51
2018-09-07T10:39:49.943Z,33.12
2018-09-07T10:42:18.608Z,32.79
2018-09-07T10:44:47.284Z,32.80
2018-09-07T10:47:15.952Z,32.24
2018-09-07T10:49:44.587Z,33.48
2018-09-07T10:52:13.298Z,33.65
2018-09-07T10:54:42.044Z,32.86
2018-09-07T10:57:10.730Z,31.81
2018-09-07T10:59:39.550Z,31.83
2018-09-07T11:02:08.143Z,35.20
2018-09-07T11:04:36.925Z,35.55
2018-09-07T11:07:05.691Z,36.39
2018-09-07T11:09:34.391Z,35.26
2018-09-07T11:12:03.083Z,36.92
2018-09-07T11:14:31.888Z,36.76
2018-09-07T11:17:00.531Z,34.37
2018-09-07T11:19:29.159Z,33.07
2018-09-07T11:21:57.811Z,33.23
2018-09-07T11:24:26.499Z,31.73
2018-09-07T11:26:55.155Z,31.21
2018-09-07T11:29:23.782Z,32.30
2018-09-07T11:31:52.507Z,31.30
2018-09-07T11:34:21.196Z,31.69
2018-09-07T11:36:50.372Z,32.81
2018-09-07T11:39:19.036Z,34.39
2018-09-07T11:41:47.827Z,34.30
2018-09-07T11:44:16.700Z,33.10
2018-09-07T11:46:45.488Z,30.91
2018-09-07T11:49:14.224Z,30.76
2018-09-07T11:51:42.920Z,30.09
2018-09-07T11:54:11.655Z,31.33
2018-09-07T11:56:40.314Z,31.74
2018-09-07T11:59:09.078Z,33.10
2018-09-07T12:01:37.755Z,31.65
2018-09-07T12:04:06.549Z,33.15
2018-09-07T12:06:35.197Z,34.98
2018-09-07T12:09:05.500Z,33.33
2018-09-07T12:11:34.123Z,31.94
2018-09-07T12:14:02.812Z,30.74
2018-09-07T12:16:31.525Z,32.09
2018-09-07T12:19:00.357Z,31.66
2018-09-07T12:21:29.043Z,32.10
2018-09-07T12:23:58.679Z,30.99
2018-09-07T12:26:27.471Z,31.79
2018-09-07T12:28:56.228Z,32.26
2018-09-07T12:31:25.007Z,32.97
2018-09-07T12:33:53.699Z,32.10
2018-09-07T12:36:22.443Z,32.61
2018-09-07T12:38:51.259Z,33.45
2018-09-07T12:41:20.992Z,33.17
2018-09-07T12:43:49.945Z,33.95
2018-09-07T12:46:18.702Z,33.00
2018-09-07T12:48:47.783Z,32.91
2018-09-07T12:51:16.753Z,32.74
2018-09-07T12:53:45.919Z,32.11
2018-09-07T12:56:14.625Z,32.50
2018-09-07T12:58:43.331Z,32.70
2018-09-07T13:01:12.933Z,34.19
2018-09-07T13:03:41.659Z,34.71
2018-09-07T13:06:10.470Z,35.62
2018-09-07T13:11:14.414Z,35.15
2018-09-07T13:13:43.148Z,36.43
2018-09-07T13:16:12.071Z,35.10
2018-09-07T13:18:40.873Z,35.24
2018-09-07T13:21:09.587Z,35.94
2018-09-07T13:23:38.271Z,34.01
2018-09-07T13:26:07.050Z,34.17
2018-09-07T13:28:35.713Z,34.80
2018-09-07T13:31:04.493Z,35.61
2018-09-07T13:33:33.229Z,35.48
2018-09-07T13:36:02.004Z,35.08
2018-09-07T13:38:30.797Z,35.66
2018-09-07T13:40:59.559Z,34.77
2018-09-07T13:43:28.293Z,35.83
2018-09-07T13:45:57.002Z,35.45
2018-09-07T13:48:25.710Z,34.19
2018-09-07T13:50:54.447Z,34.43
2018-09-07T13:53:23.124Z,34.64
2018-09-07T13:55:51.775Z,34.97
2018-09-07T13:58:20.691Z,35.32
2018-09-07T14:00:49.345Z,35.75
2018-09-07T14:03:18.013Z,35.31
2018-09-07T14:05:46.662Z,36.13
2018-09-07T14:08:15.342Z,35.75
2018-09-07T14:10:44.125Z,35.60
2018-09-07T14:13:12.814Z,35.86
2018-09-07T14:15:41.532Z,36.46
2018-09-07T14:18:10.261Z,36.28
2018-09-07T14:20:39.981Z,36.79
2018-09-07T14:23:09.034Z,36.08
2018-09-07T14:25:37.770Z,35.99
2018-09-07T14:28:06.913Z,36.24
2018-09-07T14:30:35.789Z,36.89
2018-09-07T14:33:04.563Z,36.11
2018-09-07T14:35:33.506Z,35.19
2018-09-07T14:38:02.458Z,36.22
2018-09-07T14:40:31.139Z,35.89
2018-09-07T14:42:59.886Z,36.43
2018-09-07T14:45:28.629Z,36.07
2018-09-07T14:47:57.363Z,36.96
2018-09-07T14:50:26.070Z,37.25
2018-09-07T14:52:54.824Z,37.01
2018-09-07T14:55:23.555Z,36.45
2018-09-07T14:57:52.355Z,36.71
2018-09-07T15:00:21.199Z,35.79
2018-09-07T15:02:49.862Z,36.22
2018-09-07T15:05:18.605Z,36.44
2018-09-07T15:07:47.360Z,36.84
2018-09-07T15:10:16.118Z,36.93
2018-09-07T15:12:44.786Z,36.83
2018-09-07T15:15:13.877Z,37.22
2018-09-07T15:17:42.570Z,34.94
2018-09-07T15:20:11.274Z,34.42
2018-09-07T15:22:39.917Z,34.37
2018-09-07T15:25:08.570Z,34.91
2018-09-07T15:27:37.306Z,34.91
2018-09-07T15:30:07.555Z,34.91
2018-09-07T15:32:36.252Z,34.49
2018-09-07T15:35:04.993Z,34.74
2018-09-07T15:37:33.886Z,34.43
2018-09-07T15:40:02.572Z,34.76
2018-09-07T15:42:31.734Z,34.90
2018-09-07T15:45:00.400Z,35.01
2018-09-07T15:47:30.144Z,34.96
2018-09-07T15:49:59.260Z,34.92
2018-09-07T15:52:28.387Z,35.18
2018-09-07T15:54:56.999Z,35.01
2018-09-07T15:57:25.658Z,35.19
2018-09-07T15:59:54.274Z,34.86
2018-09-07T16:02:22.939Z,35.07
2018-09-07T16:04:51.717Z,35.04
2018-09-07T16:07:20.520Z,35.27
2018-09-07T16:09:49.192Z,35.74
2018-09-07T16:12:17.889Z,36.03
2018-09-07T16:14:46.566Z,36.48
2018-09-07T16:17:15.291Z,36.50
2018-09-07T16:19:44.339Z,36.15
2018-09-07T16:22:13.038Z,36.30
2018-09-07T16:24:42.050Z,36.32
2018-09-07T16:27:10.984Z,36.70
2018-09-07T16:29:39.909Z,36.31
2018-09-07T16:32:08.621Z,36.56
2018-09-07T16:34:37.603Z,37.46
2018-09-07T16:37:06.302Z,37.08
2018-09-07T16:39:35.043Z,37.10
2018-09-07T16:42:03.792Z,38.03
2018-09-07T16:44:32.482Z,36.99
2018-09-07T16:47:01.143Z,37.64
2018-09-07T16:49:29.789Z,37.35
2018-09-07T16:51:58.449Z,37.31
2018-09-07T16:54:27.184Z,38.40
2018-09-07T16:56:55.871Z,38.43
2018-09-07T16:59:25.024Z,38.16
2018-09-07T17:01:54.130Z,38.46
2018-09-07T17:04:22.810Z,39.05
2018-09-07T17:06:51.543Z,38.48
2018-09-07T17:09:20.197Z,39.03
2018-09-07T17:11:49.155Z,39.19
2018-09-07T17:14:18.079Z,39.59
2018-09-07T17:16:46.874Z,40.92
2018-09-07T17:19:15.573Z,40.39
2018-09-07T17:21:44.471Z,40.99
2018-09-07T17:24:13.136Z,40.58
2018-09-07T17:26:42.429Z,41.25
2018-09-07T17:29:11.317Z,41.26
2018-09-07T17:31:40.022Z,41.71
2018-09-07T17:34:08.894Z,42.45
2018-09-07T17:36:37.782Z,43.06
2018-09-07T17:39:07.922Z,42.81
2018-09-07T17:41:36.667Z,44.42
2018-09-07T17:44:05.739Z,44.68
2018-09-07T17:46:34.440Z,44.81
2018-09-07T17:49:03.174Z,44.72
2018-09-07T17:51:31.948Z,44.65
2018-09-07T17:54:00.733Z,45.02
2018-09-07T17:56:29.391Z,45.83
2018-09-07T17:58:58.074Z,45.44
2018-09-07T18:01:26.754Z,45.96
2018-09-07T18:03:55.459Z,46.29
2018-09-07T18:06:25.586Z,46.28
2018-09-07T18:08:54.270Z,46.28
2018-09-07T18:11:22.990Z,46.54
2018-09-07T18:13:51.779Z,47.59
2018-09-07T18:16:20.483Z,48.18
2018-09-07T18:18:49.154Z,48.50
2018-09-07T18:21:17.854Z,48.33
2018-09-07T18:23:46.507Z,48.48
2018-09-07T18:26:15.182Z,49.36
2018-09-07T18:28:43.830Z,49.69
2018-09-07T18:31:12.526Z,49.60
2018-09-07T18:33:42.370Z,49.54
2018-09-07T18:36:11.346Z,49.75
2018-09-07T18:38:39.774Z,49.83
2018-09-07T18:41:08.644Z,49.82
2018-09-07T18:43:37.431Z,50.63
2018-09-07T18:46:06.095Z,50.12
2018-09-07T18:48:34.742Z,50.09
2018-09-07T18:51:03.454Z,51.42
2018-09-07T18:53:32.151Z,52.21
2018-09-07T18:56:00.851Z,51.88
2018-09-07T18:58:29.576Z,51.74
2018-09-07T19:00:58.227Z,52.02
2018-09-07T19:03:26.913Z,51.33
2018-09-07T19:05:55.586Z,51.74
2018-09-07T19:08:24.218Z,51.22
2018-09-07T19:10:52.884Z,50.90
2018-09-07T19:13:21.533Z,51.55
2018-09-07T19:15:50.211Z,51.06
2018-09-07T19:18:18.899Z,52.28
2018-09-07T19:20:47.593Z,52.48
2018-09-07T19:23:16.304Z,53.00
2018-09-07T19:25:45.017Z,53.08
2018-09-07T19:28:13.679Z,52.87
2018-09-07T19:30:42.467Z,53.42
2018-09-07T19:33:11.158Z,53.48
2018-09-07T19:35:39.838Z,53.36
2018-09-07T19:38:08.482Z,53.92
2018-09-07T19:40:37.154Z,53.73
2018-09-07T19:43:06.267Z,54.63
2018-09-07T19:45:34.922Z,54.48
2018-09-07T19:48:03.621Z,54.53
2018-09-07T19:50:32.338Z,54.75
2018-09-07T19:53:01.027Z,54.84
2018-09-07T19:55:29.687Z,54.77
2018-09-07T19:57:58.349Z,54.58
2018-09-07T20:00:27.026Z,55.67
2018-09-07T20:02:55.794Z,55.16
2018-09-07T20:05:25.514Z,55.30
2018-09-07T20:07:54.186Z,55.12
2018-09-07T20:10:22.861Z,55.82
2018-09-07T20:12:51.565Z,55.66
2018-09-07T20:15:20.267Z,56.41
2018-09-07T20:17:48.957Z,56.53
2018-09-07T20:20:17.619Z,56.27
2018-09-07T20:22:46.354Z,56.15
2018-09-07T20:25:15.011Z,55.88
2018-09-07T20:27:43.886Z,56.36
2018-09-07T20:30:12.649Z,56.65
2018-09-07T20:32:41.529Z,57.10
2018-09-07T20:35:16.737Z,57.33
2018-09-07T20:37:45.446Z,56.79
2018-09-07T20:40:14.175Z,57.21
2018-09-07T20:42:42.863Z,57.02
2018-09-07T20:45:11.533Z,57.16
2018-09-07T20:47:40.225Z,57.21
2018-09-07T20:50:09.051Z,57.92
2018-09-07T20:52:37.715Z,59.49
2018-09-07T20:55:06.438Z,58.97
2018-09-07T20:57:35.308Z,58.76
2018-09-07T21:00:05.942Z,59.33
2018-09-07T21:02:34.681Z,58.63
2018-09-07T21:05:03.814Z,59.35
2018-09-07T21:07:32.484Z,58.21
2018-09-07T21:10:01.152Z,58.75
2018-09-07T21:12:29.832Z,60.45
2018-09-07T21:14:58.486Z,60.44
2018-09-07T21:17:27.192Z,59.99
2018-09-07T21:19:55.873Z,61.04
2018-09-07T21:22:24.719Z,61.64
2018-09-07T21:24:53.356Z,61.65
2018-09-07T21:27:22.133Z,61.05
2018-09-07T21:29:50.851Z,62.24
2018-09-07T21:32:19.491Z,62.47
2018-09-07T21:34:48.191Z,62.05
2018-09-07T21:37:16.897Z,61.93
2018-09-07T21:39:45.954Z,60.33
2018-09-07T21:42:14.613Z,60.57
2018-09-07T21:44:43.264Z,60.43
2018-09-07T21:47:11.921Z,59.89
2018-09-07T21:49:40.580Z,60.94
2018-09-07T21:52:09.486Z,61.89
2018-09-07T21:54:38.167Z,62.64
2018-09-07T21:57:06.860Z,62.47
2018-09-07T21:59:35.547Z,63.56
2018-09-07T22:02:04.273Z,63.88
2018-09-07T22:04:32.916Z,64.21
2018-09-07T22:07:06.947Z,65.43
2018-09-07T22:09:36.746Z,65.46
2018-09-07T22:12:07.365Z,64.86
2018-09-07T22:14:36.482Z,64.53
2018-09-07T22:17:05.208Z,64.08
2018-09-07T22:19:33.908Z,64.19
2018-09-07T22:22:02.646Z,65.18
2018-09-07T22:24:31.465Z,65.33
2018-09-07T22:27:00.172Z,64.91
2018-09-07T22:29:28.864Z,64.83
2018-09-07T22:31:57.555Z,65.11
2018-09-07T22:34:26.232Z,65.24
2018-09-07T22:36:54.909Z,66.20
2018-09-07T22:39:23.741Z,64.83
2018-09-07T22:41:52.420Z,65.44
2018-09-07T22:44:21.317Z,65.79
2018-09-07T22:46:49.985Z,64.52
2018-09-07T22:49:18.657Z,64.55
2018-09-07T22:51:47.367Z,65.75
2018-09-07T22:54:16.008Z,67.18
2018-09-07T22:56:44.681Z,67.22
2018-09-07T22:59:13.383Z,66.40
2018-09-07T23:01:42.015Z,66.43
2018-09-07T23:04:10.644Z,67.37
2018-09-07T23:06:44.300Z,66.41
2018-09-07T23:09:12.937Z,66.23
2018-09-07T23:11:41.648Z,66.91
2018-09-07T23:14:10.322Z,67.74
2018-09-07T23:16:38.990Z,67.13
2018-09-07T23:19:07.708Z,67.91
2018-09-07T23:21:36.433Z,66.96
2018-09-07T23:24:05.178Z,66.81
2018-09-07T23:26:33.920Z,66.97
2018-09-07T23:29:02.630Z,67.15
2018-09-07T23:31:31.387Z,66.64
2018-09-07T23:34:00.117Z,66.76
2018-09-07T23:36:28.837Z,66.49
2018-09-07T23:38:57.495Z,65.96
2018-09-07T23:41:26.195Z,66.23
2018-09-07T23:43:54.867Z,66.37
2018-09-07T23:46:23.547Z,67.01
2018-09-07T23:48:52.299Z,66.87
2018-09-07T23:51:27.492Z,67.10
2018-09-07T23:53:56.274Z,68.12
2018-09-07T23:56:25.042Z,68.28
2018-09-07T23:58:53.861Z,69.04
